sensor_id;sensor_type;location;lat;lon;timestamp;temperature;humidity
31046;DHT22;17711;54.018;9.300;2023-06-22T00:00:41;15.60;99.90
31046;DHT22;17711;54.018;9.300;2023-06-22T00:03:12;15.50;99.90
31046;DHT22;17711;54.018;9.300;2023-06-22T00:05:41;15.40;99.90
31046;DHT22;17711;54.018;9.300;2023-06-22T00:08:10;15.30;99.90
31046;DHT22;17711;54.018;9.300;2023-06-22T00:10:39;15.20;99.90
31046;DHT22;17711;54.018;9.300;2023-06-22T00:13:08;15.30;99.90
31046;DHT22;17711;54.018;9.300;2023-06-22T00:15:39;15.30;99.90
31046;DHT22;17711;54.018;9.300;2023-06-22T00:18:10;15.20;99.90
31046;DHT22;17711;54.018;9.300;2023-06-22T00:20:42;15.20;99.90
31046;DHT22;17711;54.018;9.300;2023-06-22T00:23:13;15.40;99.90
31046;DHT22;17711;54.018;9.300;2023-06-22T00:25:44;15.40;99.90
31046;DHT22;17711;54.018;9.300;2023-06-22T00:28:12;15.30;99.90
31046;DHT22;17711;54.018;9.300;2023-06-22T00:30:41;15.20;99.90
31046;DHT22;17711;54.018;9.300;2023-06-22T00:33:12;15.20;99.90
31046;DHT22;17711;54.018;9.300;2023-06-22T00:35:44;15.30;99.90
31046;DHT22;17711;54.018;9.300;2023-06-22T00:38:13;15.40;99.90
31046;DHT22;17711;54.018;9.300;2023-06-22T00:40:42;15.30;99.90
31046;DHT22;17711;54.018;9.300;2023-06-22T00:43:11;15.20;99.90
31046;DHT22;17711;54.018;9.300;2023-06-22T00:45:39;15.10;99.90
31046;DHT22;17711;54.018;9.300;2023-06-22T00:48:08;14.90;99.90
31046;DHT22;17711;54.018;9.300;2023-06-22T00:50:37;14.80;99.90
31046;DHT22;17711;54.018;9.300;2023-06-22T00:53:08;14.80;99.90
31046;DHT22;17711;54.018;9.300;2023-06-22T00:55:42;14.70;99.90
31046;DHT22;17711;54.018;9.300;2023-06-22T00:58:12;14.90;99.90
31046;DHT22;17711;54.018;9.300;2023-06-22T01:00:41;14.90;99.90
31046;DHT22;17711;54.018;9.300;2023-06-22T01:03:10;15.00;99.90
31046;DHT22;17711;54.018;9.300;2023-06-22T01:05:40;14.90;99.90
31046;DHT22;17711;54.018;9.300;2023-06-22T01:08:27;14.80;99.90
31046;DHT22;17711;54.018;9.300;2023-06-22T01:11:03;14.80;99.90
31046;DHT22;17711;54.018;9.300;2023-06-22T01:13:37;14.60;99.90
31046;DHT22;17711;54.018;9.300;2023-06-22T01:16:16;14.50;99.90
31046;DHT22;17711;54.018;9.300;2023-06-22T01:18:48;14.70;99.90
31046;DHT22;17711;54.018;9.300;2023-06-22T01:21:23;15.00;99.90
31046;DHT22;17711;54.018;9.300;2023-06-22T01:24:01;15.20;99.90
31046;DHT22;17711;54.018;9.300;2023-06-22T01:26:37;15.00;99.90
31046;DHT22;17711;54.018;9.300;2023-06-22T01:29:09;14.80;99.90
31046;DHT22;17711;54.018;9.300;2023-06-22T01:31:41;14.80;99.90
31046;DHT22;17711;54.018;9.300;2023-06-22T01:34:11;14.70;99.90
31046;DHT22;17711;54.018;9.300;2023-06-22T01:36:41;14.60;99.90
31046;DHT22;17711;54.018;9.300;2023-06-22T01:39:11;14.40;99.90
31046;DHT22;17711;54.018;9.300;2023-06-22T01:41:41;14.30;99.90
31046;DHT22;17711;54.018;9.300;2023-06-22T01:44:12;14.30;99.90
31046;DHT22;17711;54.018;9.300;2023-06-22T01:46:41;14.30;99.90
31046;DHT22;17711;54.018;9.300;2023-06-22T01:49:10;14.30;99.90
31046;DHT22;17711;54.018;9.300;2023-06-22T01:51:39;14.30;99.90
31046;DHT22;17711;54.018;9.300;2023-06-22T01:54:07;14.10;99.90
31046;DHT22;17711;54.018;9.300;2023-06-22T01:56:36;14.10;99.90
31046;DHT22;17711;54.018;9.300;2023-06-22T01:59:11;14.10;99.90
31046;DHT22;17711;54.018;9.300;2023-06-22T02:01:48;14.10;99.90
31046;DHT22;17711;54.018;9.300;2023-06-22T02:04:21;14.10;99.90
31046;DHT22;17711;54.018;9.300;2023-06-22T02:06:53;14.00;99.90
31046;DHT22;17711;54.018;9.300;2023-06-22T02:09:23;14.00;99.90
31046;DHT22;17711;54.018;9.300;2023-06-22T02:11:55;13.90;99.90
31046;DHT22;17711;54.018;9.300;2023-06-22T02:14:24;14.00;99.90
31046;DHT22;17711;54.018;9.300;2023-06-22T02:16:56;14.00;99.90
31046;DHT22;17711;54.018;9.300;2023-06-22T02:19:27;14.00;99.90
31046;DHT22;17711;54.018;9.300;2023-06-22T02:22:00;14.00;99.90
31046;DHT22;17711;54.018;9.300;2023-06-22T02:24:29;14.00;99.90
31046;DHT22;17711;54.018;9.300;2023-06-22T02:26:59;14.10;99.90
31046;DHT22;17711;54.018;9.300;2023-06-22T02:29:28;14.30;99.90
31046;DHT22;17711;54.018;9.300;2023-06-22T02:31:58;14.30;99.90
31046;DHT22;17711;54.018;9.300;2023-06-22T02:34:27;14.20;99.90
31046;DHT22;17711;54.018;9.300;2023-06-22T02:36:56;14.10;99.90
31046;DHT22;17711;54.018;9.300;2023-06-22T02:39:27;14.20;99.90
31046;DHT22;17711;54.018;9.300;2023-06-22T02:41:56;14.30;99.90
31046;DHT22;17711;54.018;9.300;2023-06-22T02:44:24;14.30;99.90
31046;DHT22;17711;54.018;9.300;2023-06-22T02:46:53;14.30;99.90
31046;DHT22;17711;54.018;9.300;2023-06-22T02:49:24;14.50;99.90
31046;DHT22;17711;54.018;9.300;2023-06-22T02:51:53;14.40;99.90
31046;DHT22;17711;54.018;9.300;2023-06-22T02:54:22;14.40;99.90
31046;DHT22;17711;54.018;9.300;2023-06-22T02:56:51;14.50;99.90
31046;DHT22;17711;54.018;9.300;2023-06-22T02:59:19;14.70;99.90
31046;DHT22;17711;54.018;9.300;2023-06-22T03:01:51;14.60;99.90
31046;DHT22;17711;54.018;9.300;2023-06-22T03:04:20;14.60;99.90
31046;DHT22;17711;54.018;9.300;2023-06-22T03:06:50;14.80;99.90
31046;DHT22;17711;54.018;9.300;2023-06-22T03:09:19;14.90;99.90
31046;DHT22;17711;54.018;9.300;2023-06-22T03:11:48;14.90;99.90
31046;DHT22;17711;54.018;9.300;2023-06-22T03:14:17;14.70;99.90
31046;DHT22;17711;54.018;9.300;2023-06-22T03:16:45;14.40;99.90
31046;DHT22;17711;54.018;9.300;2023-06-22T03:19:14;14.30;99.90
31046;DHT22;17711;54.018;9.300;2023-06-22T03:21:42;14.10;99.90
31046;DHT22;17711;54.018;9.300;2023-06-22T03:24:13;14.00;99.90
31046;DHT22;17711;54.018;9.300;2023-06-22T03:26:41;13.90;99.90
31046;DHT22;17711;54.018;9.300;2023-06-22T03:29:13;13.80;99.90
31046;DHT22;17711;54.018;9.300;2023-06-22T03:31:42;13.80;99.90
31046;DHT22;17711;54.018;9.300;2023-06-22T03:34:11;14.00;99.90
31046;DHT22;17711;54.018;9.300;2023-06-22T03:36:40;14.00;99.90
31046;DHT22;17711;54.018;9.300;2023-06-22T03:39:13;13.90;99.90
31046;DHT22;17711;54.018;9.300;2023-06-22T03:41:42;13.90;99.90
31046;DHT22;17711;54.018;9.300;2023-06-22T03:44:11;14.00;99.90
31046;DHT22;17711;54.018;9.300;2023-06-22T03:46:40;14.20;99.90
31046;DHT22;17711;54.018;9.300;2023-06-22T03:49:08;14.40;99.90
31046;DHT22;17711;54.018;9.300;2023-06-22T03:51:37;14.60;99.90
31046;DHT22;17711;54.018;9.300;2023-06-22T03:54:05;14.70;99.90
31046;DHT22;17711;54.018;9.300;2023-06-22T03:56:35;14.70;99.90
31046;DHT22;17711;54.018;9.300;2023-06-22T03:59:05;14.80;99.90
31046;DHT22;17711;54.018;9.300;2023-06-22T04:01:34;15.00;99.90
31046;DHT22;17711;54.018;9.300;2023-06-22T04:04:04;14.90;99.90
31046;DHT22;17711;54.018;9.300;2023-06-22T04:06:32;14.90;99.90
31046;DHT22;17711;54.018;9.300;2023-06-22T04:09:02;14.90;99.90
31046;DHT22;17711;54.018;9.300;2023-06-22T04:11:31;15.00;99.90
31046;DHT22;17711;54.018;9.300;2023-06-22T04:14:01;15.30;99.90
31046;DHT22;17711;54.018;9.300;2023-06-22T04:16:30;15.30;99.90
31046;DHT22;17711;54.018;9.300;2023-06-22T04:18:58;15.30;99.90
31046;DHT22;17711;54.018;9.300;2023-06-22T04:21:27;15.40;99.90
31046;DHT22;17711;54.018;9.300;2023-06-22T04:23:56;15.50;99.90
31046;DHT22;17711;54.018;9.300;2023-06-22T04:26:25;15.60;99.90
31046;DHT22;17711;54.018;9.300;2023-06-22T04:28:54;15.60;99.90
31046;DHT22;17711;54.018;9.300;2023-06-22T04:31:26;15.70;99.90
31046;DHT22;17711;54.018;9.300;2023-06-22T04:34:00;15.80;99.90
31046;DHT22;17711;54.018;9.300;2023-06-22T04:36:34;16.10;99.90
31046;DHT22;17711;54.018;9.300;2023-06-22T04:39:08;16.40;99.90
31046;DHT22;17711;54.018;9.300;2023-06-22T04:41:37;16.60;99.90
31046;DHT22;17711;54.018;9.300;2023-06-22T04:44:12;16.60;99.90
31046;DHT22;17711;54.018;9.300;2023-06-22T04:46:42;16.70;99.90
31046;DHT22;17711;54.018;9.300;2023-06-22T04:49:11;16.80;99.90
31046;DHT22;17711;54.018;9.300;2023-06-22T04:51:41;16.80;99.90
31046;DHT22;17711;54.018;9.300;2023-06-22T04:54:10;16.80;99.90
31046;DHT22;17711;54.018;9.300;2023-06-22T04:56:39;16.80;99.90
31046;DHT22;17711;54.018;9.300;2023-06-22T04:59:08;16.90;99.90
31046;DHT22;17711;54.018;9.300;2023-06-22T05:01:41;16.90;99.90
31046;DHT22;17711;54.018;9.300;2023-06-22T05:04:10;16.90;99.90
31046;DHT22;17711;54.018;9.300;2023-06-22T05:06:40;16.90;99.90
31046;DHT22;17711;54.018;9.300;2023-06-22T05:09:09;16.90;99.90
31046;DHT22;17711;54.018;9.300;2023-06-22T05:11:39;17.00;99.90
31046;DHT22;17711;54.018;9.300;2023-06-22T05:14:08;17.00;99.90
31046;DHT22;17711;54.018;9.300;2023-06-22T05:16:38;17.00;99.90
31046;DHT22;17711;54.018;9.300;2023-06-22T05:19:08;17.10;99.90
31046;DHT22;17711;54.018;9.300;2023-06-22T05:21:37;17.20;99.90
31046;DHT22;17711;54.018;9.300;2023-06-22T05:24:06;17.30;99.90
31046;DHT22;17711;54.018;9.300;2023-06-22T05:26:35;17.30;99.90
31046;DHT22;17711;54.018;9.300;2023-06-22T05:29:04;17.40;99.90
31046;DHT22;17711;54.018;9.300;2023-06-22T05:31:33;17.50;99.90
31046;DHT22;17711;54.018;9.300;2023-06-22T05:34:02;17.60;99.90
31046;DHT22;17711;54.018;9.300;2023-06-22T05:36:32;17.70;99.90
31046;DHT22;17711;54.018;9.300;2023-06-22T05:39:11;17.90;99.90
31046;DHT22;17711;54.018;9.300;2023-06-22T05:41:41;18.10;99.90
31046;DHT22;17711;54.018;9.300;2023-06-22T05:44:10;18.20;99.90
31046;DHT22;17711;54.018;9.300;2023-06-22T05:46:41;18.30;99.90
31046;DHT22;17711;54.018;9.300;2023-06-22T05:49:12;18.50;99.90
31046;DHT22;17711;54.018;9.300;2023-06-22T05:51:42;18.50;99.90
31046;DHT22;17711;54.018;9.300;2023-06-22T05:54:11;18.50;99.90
31046;DHT22;17711;54.018;9.300;2023-06-22T05:56:43;18.50;99.90
31046;DHT22;17711;54.018;9.300;2023-06-22T05:59:11;18.50;99.90
31046;DHT22;17711;54.018;9.300;2023-06-22T06:01:40;18.50;99.90
31046;DHT22;17711;54.018;9.300;2023-06-22T06:04:14;18.60;99.90
31046;DHT22;17711;54.018;9.300;2023-06-22T06:06:44;18.70;99.90
31046;DHT22;17711;54.018;9.300;2023-06-22T06:09:14;18.80;99.90
31046;DHT22;17711;54.018;9.300;2023-06-22T06:11:43;19.00;99.90
31046;DHT22;17711;54.018;9.300;2023-06-22T06:14:13;19.10;99.90
31046;DHT22;17711;54.018;9.300;2023-06-22T06:16:41;19.20;99.90
31046;DHT22;17711;54.018;9.300;2023-06-22T06:19:10;19.20;99.90
31046;DHT22;17711;54.018;9.300;2023-06-22T06:21:39;19.30;99.90
31046;DHT22;17711;54.018;9.300;2023-06-22T06:24:10;19.40;99.90
31046;DHT22;17711;54.018;9.300;2023-06-22T06:26:38;19.40;99.90
31046;DHT22;17711;54.018;9.300;2023-06-22T06:29:09;19.50;99.90
31046;DHT22;17711;54.018;9.300;2023-06-22T06:31:41;19.70;99.90
31046;DHT22;17711;54.018;9.300;2023-06-22T06:34:10;19.70;99.90
31046;DHT22;17711;54.018;9.300;2023-06-22T06:36:38;19.80;99.90
31046;DHT22;17711;54.018;9.300;2023-06-22T06:39:11;19.80;99.90
31046;DHT22;17711;54.018;9.300;2023-06-22T06:41:40;20.00;99.90
31046;DHT22;17711;54.018;9.300;2023-06-22T06:44:08;20.00;99.90
31046;DHT22;17711;54.018;9.300;2023-06-22T06:46:37;20.10;99.90
31046;DHT22;17711;54.018;9.300;2023-06-22T06:49:06;20.20;99.90
31046;DHT22;17711;54.018;9.300;2023-06-22T06:51:34;20.30;99.90
31046;DHT22;17711;54.018;9.300;2023-06-22T06:54:03;20.40;99.90
31046;DHT22;17711;54.018;9.300;2023-06-22T06:56:34;20.40;99.90
31046;DHT22;17711;54.018;9.300;2023-06-22T06:59:03;20.50;99.90
31046;DHT22;17711;54.018;9.300;2023-06-22T07:01:32;20.60;99.90
31046;DHT22;17711;54.018;9.300;2023-06-22T07:04:03;20.70;99.90
31046;DHT22;17711;54.018;9.300;2023-06-22T07:06:32;20.90;99.90
31046;DHT22;17711;54.018;9.300;2023-06-22T07:09:01;21.00;99.90
31046;DHT22;17711;54.018;9.300;2023-06-22T07:11:31;21.10;99.90
31046;DHT22;17711;54.018;9.300;2023-06-22T07:14:10;21.20;99.90
31046;DHT22;17711;54.018;9.300;2023-06-22T07:16:39;21.40;99.90
31046;DHT22;17711;54.018;9.300;2023-06-22T07:19:07;21.50;99.90
31046;DHT22;17711;54.018;9.300;2023-06-22T07:21:37;21.50;99.90
31046;DHT22;17711;54.018;9.300;2023-06-22T07:24:07;21.60;99.90
31046;DHT22;17711;54.018;9.300;2023-06-22T07:26:38;21.80;99.90
31046;DHT22;17711;54.018;9.300;2023-06-22T07:29:13;21.80;99.90
31046;DHT22;17711;54.018;9.300;2023-06-22T07:31:45;21.80;99.90
31046;DHT22;17711;54.018;9.300;2023-06-22T07:34:16;22.00;99.90
31046;DHT22;17711;54.018;9.300;2023-06-22T07:36:46;22.10;99.90
31046;DHT22;17711;54.018;9.300;2023-06-22T07:39:15;22.30;99.90
31046;DHT22;17711;54.018;9.300;2023-06-22T07:41:44;22.50;99.90
31046;DHT22;17711;54.018;9.300;2023-06-22T07:44:14;22.60;99.90
31046;DHT22;17711;54.018;9.300;2023-06-22T07:46:42;22.80;99.90
31046;DHT22;17711;54.018;9.300;2023-06-22T07:49:11;22.90;99.90
31046;DHT22;17711;54.018;9.300;2023-06-22T07:51:41;23.00;99.90
31046;DHT22;17711;54.018;9.300;2023-06-22T07:54:11;23.20;99.90
31046;DHT22;17711;54.018;9.300;2023-06-22T07:56:40;23.40;99.90
31046;DHT22;17711;54.018;9.300;2023-06-22T07:59:08;23.60;99.90
31046;DHT22;17711;54.018;9.300;2023-06-22T08:01:39;23.60;99.90
31046;DHT22;17711;54.018;9.300;2023-06-22T08:04:08;23.70;99.90
31046;DHT22;17711;54.018;9.300;2023-06-22T08:06:36;24.00;99.90
31046;DHT22;17711;54.018;9.300;2023-06-22T08:09:06;24.20;99.90
31046;DHT22;17711;54.018;9.300;2023-06-22T08:11:35;24.40;99.90
31046;DHT22;17711;54.018;9.300;2023-06-22T08:14:06;24.60;99.90
31046;DHT22;17711;54.018;9.300;2023-06-22T08:16:35;24.80;99.90
31046;DHT22;17711;54.018;9.300;2023-06-22T08:19:05;25.10;99.90
31046;DHT22;17711;54.018;9.300;2023-06-22T08:21:34;25.50;99.90
31046;DHT22;17711;54.018;9.300;2023-06-22T08:24:04;25.80;99.90
31046;DHT22;17711;54.018;9.300;2023-06-22T08:26:33;26.10;99.90
31046;DHT22;17711;54.018;9.300;2023-06-22T08:29:06;26.40;99.90
31046;DHT22;17711;54.018;9.300;2023-06-22T08:31:34;26.60;99.90
31046;DHT22;17711;54.018;9.300;2023-06-22T08:34:06;26.60;99.90
31046;DHT22;17711;54.018;9.300;2023-06-22T08:36:35;27.00;99.90
31046;DHT22;17711;54.018;9.300;2023-06-22T08:39:08;27.70;95.00
31046;DHT22;17711;54.018;9.300;2023-06-22T08:41:38;29.10;96.30
31046;DHT22;17711;54.018;9.300;2023-06-22T08:44:07;30.80;87.80
31046;DHT22;17711;54.018;9.300;2023-06-22T08:46:35;31.70;52.40
31046;DHT22;17711;54.018;9.300;2023-06-22T08:49:07;31.90;62.00
31046;DHT22;17711;54.018;9.300;2023-06-22T08:51:37;33.00;48.10
31046;DHT22;17711;54.018;9.300;2023-06-22T08:54:06;33.60;42.90
31046;DHT22;17711;54.018;9.300;2023-06-22T08:56:35;34.30;48.10
31046;DHT22;17711;54.018;9.300;2023-06-22T08:59:04;34.90;43.50
31046;DHT22;17711;54.018;9.300;2023-06-22T09:01:34;35.40;39.70
31046;DHT22;17711;54.018;9.300;2023-06-22T09:04:03;35.60;37.20
31046;DHT22;17711;54.018;9.300;2023-06-22T09:06:37;36.30;42.80
31046;DHT22;17711;54.018;9.300;2023-06-22T09:09:08;37.50;38.30
31046;DHT22;17711;54.018;9.300;2023-06-22T09:11:37;38.20;33.60
31046;DHT22;17711;54.018;9.300;2023-06-22T09:14:06;38.70;32.00
31046;DHT22;17711;54.018;9.300;2023-06-22T09:16:35;39.40;34.30
31046;DHT22;17711;54.018;9.300;2023-06-22T09:19:04;40.00;32.20
31046;DHT22;17711;54.018;9.300;2023-06-22T09:21:33;39.60;33.10
31046;DHT22;17711;54.018;9.300;2023-06-22T09:24:04;40.20;30.40
31046;DHT22;17711;54.018;9.300;2023-06-22T09:26:33;39.90;33.00
31046;DHT22;17711;54.018;9.300;2023-06-22T09:29:01;39.90;30.10
31046;DHT22;17711;54.018;9.300;2023-06-22T09:31:33;39.70;30.10
31046;DHT22;17711;54.018;9.300;2023-06-22T09:34:01;39.90;29.20
31046;DHT22;17711;54.018;9.300;2023-06-22T09:36:33;40.00;28.90
31046;DHT22;17711;54.018;9.300;2023-06-22T09:39:03;40.90;28.80
31046;DHT22;17711;54.018;9.300;2023-06-22T09:41:33;41.70;26.80
31046;DHT22;17711;54.018;9.300;2023-06-22T09:44:02;41.10;26.30
31046;DHT22;17711;54.018;9.300;2023-06-22T09:46:31;40.70;27.30
31046;DHT22;17711;54.018;9.300;2023-06-22T09:49:00;40.20;29.30
31046;DHT22;17711;54.018;9.300;2023-06-22T09:51:28;39.20;26.50
31046;DHT22;17711;54.018;9.300;2023-06-22T09:53:57;37.80;28.50
31046;DHT22;17711;54.018;9.300;2023-06-22T09:56:27;37.00;30.00
31046;DHT22;17711;54.018;9.300;2023-06-22T09:58:58;36.90;29.10
31046;DHT22;17711;54.018;9.300;2023-06-22T10:01:44;37.80;32.20
31046;DHT22;17711;54.018;9.300;2023-06-22T10:04:20;39.60;31.10
31046;DHT22;17711;54.018;9.300;2023-06-22T10:06:49;38.80;30.20
31046;DHT22;17711;54.018;9.300;2023-06-22T10:09:17;38.50;29.80
31046;DHT22;17711;54.018;9.300;2023-06-22T10:11:47;39.10;29.20
31046;DHT22;17711;54.018;9.300;2023-06-22T10:14:16;39.90;28.80
31046;DHT22;17711;54.018;9.300;2023-06-22T10:16:45;40.90;31.50
31046;DHT22;17711;54.018;9.300;2023-06-22T10:19:14;41.30;27.40
31046;DHT22;17711;54.018;9.300;2023-06-22T10:21:43;41.60;27.00
31046;DHT22;17711;54.018;9.300;2023-06-22T10:24:12;41.60;26.10
31046;DHT22;17711;54.018;9.300;2023-06-22T10:26:43;42.50;26.80
31046;DHT22;17711;54.018;9.300;2023-06-22T10:29:13;43.50;26.00
31046;DHT22;17711;54.018;9.300;2023-06-22T10:31:43;43.60;27.40
31046;DHT22;17711;54.018;9.300;2023-06-22T10:34:21;43.20;26.30
31046;DHT22;17711;54.018;9.300;2023-06-22T10:36:51;42.50;25.30
31046;DHT22;17711;54.018;9.300;2023-06-22T10:39:20;40.80;26.80
31046;DHT22;17711;54.018;9.300;2023-06-22T10:41:49;39.50;27.60
31046;DHT22;17711;54.018;9.300;2023-06-22T10:44:19;38.30;27.90
31046;DHT22;17711;54.018;9.300;2023-06-22T10:46:49;38.10;30.70
31046;DHT22;17711;54.018;9.300;2023-06-22T10:49:17;39.00;30.60
31046;DHT22;17711;54.018;9.300;2023-06-22T10:51:46;40.00;30.30
31046;DHT22;17711;54.018;9.300;2023-06-22T10:54:14;41.50;28.40
31046;DHT22;17711;54.018;9.300;2023-06-22T10:56:45;42.40;28.60
31046;DHT22;17711;54.018;9.300;2023-06-22T10:59:14;42.70;27.50
31046;DHT22;17711;54.018;9.300;2023-06-22T11:01:44;43.80;25.20
31046;DHT22;17711;54.018;9.300;2023-06-22T11:04:12;44.20;25.30
31046;DHT22;17711;54.018;9.300;2023-06-22T11:06:41;44.60;26.20
31046;DHT22;17711;54.018;9.300;2023-06-22T11:09:10;44.70;22.90
31046;DHT22;17711;54.018;9.300;2023-06-22T11:11:52;44.00;24.60
31046;DHT22;17711;54.018;9.300;2023-06-22T11:14:22;43.60;25.00
31046;DHT22;17711;54.018;9.300;2023-06-22T11:16:52;44.00;25.40
31046;DHT22;17711;54.018;9.300;2023-06-22T11:19:21;44.00;24.50
31046;DHT22;17711;54.018;9.300;2023-06-22T11:21:50;42.90;24.70
31046;DHT22;17711;54.018;9.300;2023-06-22T11:24:18;42.00;24.10
31046;DHT22;17711;54.018;9.300;2023-06-22T11:26:47;40.70;26.40
31046;DHT22;17711;54.018;9.300;2023-06-22T11:29:16;38.90;28.50
31046;DHT22;17711;54.018;9.300;2023-06-22T11:31:59;36.90;30.80
31046;DHT22;17711;54.018;9.300;2023-06-22T11:34:30;36.60;32.60
31046;DHT22;17711;54.018;9.300;2023-06-22T11:36:59;37.90;33.30
31046;DHT22;17711;54.018;9.300;2023-06-22T11:39:31;39.20;30.30
31046;DHT22;17711;54.018;9.300;2023-06-22T11:42:08;40.80;28.90
31046;DHT22;17711;54.018;9.300;2023-06-22T11:44:38;41.50;28.00
31046;DHT22;17711;54.018;9.300;2023-06-22T11:47:08;41.50;28.30
31046;DHT22;17711;54.018;9.300;2023-06-22T11:49:37;40.40;26.60
31046;DHT22;17711;54.018;9.300;2023-06-22T11:52:07;38.30;27.40
31046;DHT22;17711;54.018;9.300;2023-06-22T11:54:37;36.30;32.00
31046;DHT22;17711;54.018;9.300;2023-06-22T11:57:06;35.30;34.40
31046;DHT22;17711;54.018;9.300;2023-06-22T11:59:35;35.60;34.90
31046;DHT22;17711;54.018;9.300;2023-06-22T12:02:04;36.60;33.70
31046;DHT22;17711;54.018;9.300;2023-06-22T12:04:36;36.90;34.20
31046;DHT22;17711;54.018;9.300;2023-06-22T12:07:04;37.00;33.50
31046;DHT22;17711;54.018;9.300;2023-06-22T12:09:35;37.20;33.60
31046;DHT22;17711;54.018;9.300;2023-06-22T12:12:05;37.90;34.00
31046;DHT22;17711;54.018;9.300;2023-06-22T12:14:34;39.30;35.60
31046;DHT22;17711;54.018;9.300;2023-06-22T12:17:03;40.60;35.90
31046;DHT22;17711;54.018;9.300;2023-06-22T12:19:31;41.30;27.00
31046;DHT22;17711;54.018;9.300;2023-06-22T12:22:02;41.90;30.00
31046;DHT22;17711;54.018;9.300;2023-06-22T12:24:31;42.80;30.50
31046;DHT22;17711;54.018;9.300;2023-06-22T12:27:00;43.20;25.90
31046;DHT22;17711;54.018;9.300;2023-06-22T12:29:30;42.60;24.80
31046;DHT22;17711;54.018;9.300;2023-06-22T12:31:59;42.00;25.30
31046;DHT22;17711;54.018;9.300;2023-06-22T12:34:27;42.10;27.80
31046;DHT22;17711;54.018;9.300;2023-06-22T12:36:57;42.70;27.10
31046;DHT22;17711;54.018;9.300;2023-06-22T12:39:28;42.20;26.20
31046;DHT22;17711;54.018;9.300;2023-06-22T12:41:56;41.70;26.10
31046;DHT22;17711;54.018;9.300;2023-06-22T12:44:25;41.30;26.90
31046;DHT22;17711;54.018;9.300;2023-06-22T12:46:54;40.80;26.60
31046;DHT22;17711;54.018;9.300;2023-06-22T12:49:23;40.70;29.40
31046;DHT22;17711;54.018;9.300;2023-06-22T12:51:52;41.10;26.60
31046;DHT22;17711;54.018;9.300;2023-06-22T12:54:21;40.90;26.60
31046;DHT22;17711;54.018;9.300;2023-06-22T12:56:51;40.20;27.10
31046;DHT22;17711;54.018;9.300;2023-06-22T12:59:22;40.40;28.00
31046;DHT22;17711;54.018;9.300;2023-06-22T13:01:51;40.90;28.40
31046;DHT22;17711;54.018;9.300;2023-06-22T13:04:20;41.00;27.50
31046;DHT22;17711;54.018;9.300;2023-06-22T13:06:49;41.20;28.00
31046;DHT22;17711;54.018;9.300;2023-06-22T13:09:19;41.80;26.90
31046;DHT22;17711;54.018;9.300;2023-06-22T13:11:48;41.00;25.30
31046;DHT22;17711;54.018;9.300;2023-06-22T13:14:18;40.90;27.30
31046;DHT22;17711;54.018;9.300;2023-06-22T13:16:49;40.30;27.90
31046;DHT22;17711;54.018;9.300;2023-06-22T13:19:17;39.80;28.80
31046;DHT22;17711;54.018;9.300;2023-06-22T13:21:46;40.00;29.10
31046;DHT22;17711;54.018;9.300;2023-06-22T13:24:15;39.50;29.40
31046;DHT22;17711;54.018;9.300;2023-06-22T13:26:43;39.00;29.10
31046;DHT22;17711;54.018;9.300;2023-06-22T13:29:14;38.00;31.00
31046;DHT22;17711;54.018;9.300;2023-06-22T13:31:44;38.00;30.00
31046;DHT22;17711;54.018;9.300;2023-06-22T13:34:13;37.40;30.80
31046;DHT22;17711;54.018;9.300;2023-06-22T13:36:42;36.70;32.80
31046;DHT22;17711;54.018;9.300;2023-06-22T13:39:14;36.70;34.40
31046;DHT22;17711;54.018;9.300;2023-06-22T13:41:42;37.10;34.40
31046;DHT22;17711;54.018;9.300;2023-06-22T13:44:11;37.10;33.10
31046;DHT22;17711;54.018;9.300;2023-06-22T13:46:40;36.30;33.50
31046;DHT22;17711;54.018;9.300;2023-06-22T13:49:10;35.50;33.20
31046;DHT22;17711;54.018;9.300;2023-06-22T13:51:40;34.70;33.90
31046;DHT22;17711;54.018;9.300;2023-06-22T13:54:09;34.10;35.60
31046;DHT22;17711;54.018;9.300;2023-06-22T13:56:55;34.40;40.90
31046;DHT22;17711;54.018;9.300;2023-06-22T13:59:23;34.50;38.50
31046;DHT22;17711;54.018;9.300;2023-06-22T14:01:54;34.70;38.90
31046;DHT22;17711;54.018;9.300;2023-06-22T14:04:24;35.00;39.10
31046;DHT22;17711;54.018;9.300;2023-06-22T14:06:54;35.60;40.50
31046;DHT22;17711;54.018;9.300;2023-06-22T14:09:24;35.70;37.60
31046;DHT22;17711;54.018;9.300;2023-06-22T14:11:54;36.10;37.40
31046;DHT22;17711;54.018;9.300;2023-06-22T14:14:23;36.30;36.90
31046;DHT22;17711;54.018;9.300;2023-06-22T14:16:54;36.10;36.40
31046;DHT22;17711;54.018;9.300;2023-06-22T14:19:24;36.00;37.50
31046;DHT22;17711;54.018;9.300;2023-06-22T14:21:52;35.60;38.50
31046;DHT22;17711;54.018;9.300;2023-06-22T14:24:22;35.50;39.70
31046;DHT22;17711;54.018;9.300;2023-06-22T14:27:10;35.30;39.70
31046;DHT22;17711;54.018;9.300;2023-06-22T14:29:39;35.00;39.90
31046;DHT22;17711;54.018;9.300;2023-06-22T14:32:08;35.00;39.60
31046;DHT22;17711;54.018;9.300;2023-06-22T14:34:39;34.90;42.20
31046;DHT22;17711;54.018;9.300;2023-06-22T14:37:08;35.00;40.10
31046;DHT22;17711;54.018;9.300;2023-06-22T14:39:37;34.60;42.60
31046;DHT22;17711;54.018;9.300;2023-06-22T14:42:06;34.40;40.90
31046;DHT22;17711;54.018;9.300;2023-06-22T14:44:35;34.60;41.60
31046;DHT22;17711;54.018;9.300;2023-06-22T14:47:05;34.80;39.70
31046;DHT22;17711;54.018;9.300;2023-06-22T14:49:34;34.70;39.00
31046;DHT22;17711;54.018;9.300;2023-06-22T14:52:05;34.60;40.60
31046;DHT22;17711;54.018;9.300;2023-06-22T14:54:35;34.70;41.30
31046;DHT22;17711;54.018;9.300;2023-06-22T14:57:03;35.10;44.10
31046;DHT22;17711;54.018;9.300;2023-06-22T14:59:32;35.50;41.70
31046;DHT22;17711;54.018;9.300;2023-06-22T15:02:01;35.50;39.00
31046;DHT22;17711;54.018;9.300;2023-06-22T15:04:29;34.90;38.40
31046;DHT22;17711;54.018;9.300;2023-06-22T15:07:03;34.40;40.70
31046;DHT22;17711;54.018;9.300;2023-06-22T15:09:34;33.80;42.50
31046;DHT22;17711;54.018;9.300;2023-06-22T15:12:07;33.30;42.40
31046;DHT22;17711;54.018;9.300;2023-06-22T15:14:40;32.60;45.60
31046;DHT22;17711;54.018;9.300;2023-06-22T15:17:08;32.40;44.50
31046;DHT22;17711;54.018;9.300;2023-06-22T15:19:37;32.10;46.70
31046;DHT22;17711;54.018;9.300;2023-06-22T15:22:08;32.00;52.20
31046;DHT22;17711;54.018;9.300;2023-06-22T15:24:38;31.90;48.80
31046;DHT22;17711;54.018;9.300;2023-06-22T15:27:06;31.80;56.00
31046;DHT22;17711;54.018;9.300;2023-06-22T15:29:35;31.80;54.80
31046;DHT22;17711;54.018;9.300;2023-06-22T15:32:04;31.70;55.90
31046;DHT22;17711;54.018;9.300;2023-06-22T15:34:33;31.80;52.70
31046;DHT22;17711;54.018;9.300;2023-06-22T15:37:02;31.80;53.20
31046;DHT22;17711;54.018;9.300;2023-06-22T15:39:32;31.80;49.70
31046;DHT22;17711;54.018;9.300;2023-06-22T15:42:01;31.60;50.10
31046;DHT22;17711;54.018;9.300;2023-06-22T15:44:30;31.60;55.80
31046;DHT22;17711;54.018;9.300;2023-06-22T15:47:00;31.70;55.10